Time;durP1;ratioP1;P1;durP2;ratioP2;P2;SDS_P1;SDS_P2;PMS_P1;PMS_P2;Temp;Humidity;BMP_temperature;BMP_pressure;BME280_temperature;BME280_humidity;BME280_pressure;Samples;Min_cycle;Max_cycle;Signal;HPM_P1;HPM_P2
2021/12/31 00:01:48;;;;;;;64.05;34.90;;;;;;;-2.35;75.68;100335.14;1703434;83;21040;-72
2021/12/31 00:04:14;;;;;;;58.05;33.25;;;;;;;-2.31;75.79;100334.46;1706404;83;21017;-81
2021/12/31 00:06:43;;;;;;;56.15;32.50;;;;;;;-2.30;76.04;100333.50;1707354;83;21145;-71
2021/12/31 00:09:08;;;;;;;62.97;34.63;;;;;;;-2.31;76.77;100324.02;1718140;83;20987;-71
2021/12/31 00:11:35;;;;;;;;;;;;;;;-2.29;77.53;100320.00;1707761;83;21339;-70
2021/12/31 00:14:02;;;;;;;58.83;32.97;;;;;;;-2.25;77.84;100318.84;1704603;83;20159;-70
2021/12/31 00:16:28;;;;;;;59.97;32.60;;;;;;;-2.26;78.22;100320.62;1703435;83;21049;-71
2021/12/31 00:18:55;;;;;;;60.67;33.15;;;;;;;-2.25;78.41;100331.42;1694634;83;21537;-70
2021/12/31 00:21:21;;;;;;;63.85;38.05;;;;;;;-2.21;78.30;100329.43;1697497;83;20993;-71
2021/12/31 00:23:47;;;;;;;52.67;31.20;;;;;;;-2.23;78.01;100325.61;1706649;80;20978;-71
2021/12/31 00:26:14;;;;;;;56.10;31.20;;;;;;;-2.26;78.01;100327.16;1706206;83;20998;-73
2021/12/31 00:28:40;;;;;;;54.83;35.88;;;;;;;-2.31;77.94;100329.72;1706616;83;20978;-72
2021/12/31 00:31:07;;;;;;;60.43;33.50;;;;;;;-2.31;77.99;100321.41;1706692;83;20994;-70
2021/12/31 00:33:33;;;;;;;57.03;32.80;;;;;;;-2.32;78.04;100318.41;1705911;83;21092;-71
2021/12/31 00:36:00;;;;;;;54.93;30.23;;;;;;;-2.33;77.97;100333.73;1703948;83;21056;-71
2021/12/31 00:38:26;;;;;;;54.23;31.85;;;;;;;-2.32;77.88;100323.64;1699130;83;21025;-76
2021/12/31 00:40:52;;;;;;;54.58;31.93;;;;;;;-2.33;77.96;100314.16;1705626;83;21049;-73
2021/12/31 00:43:20;;;;;;;51.73;30.80;;;;;;;-2.33;77.85;100301.58;1694020;83;21392;-73
2021/12/31 00:45:46;;;;;;;57.17;33.25;;;;;;;-2.33;77.82;100303.70;1700440;82;21524;-71
2021/12/31 00:48:13;;;;;;;54.53;32.90;;;;;;;-2.35;77.89;100285.53;1706398;83;20998;-70
2021/12/31 00:50:41;;;;;;;57.90;33.53;;;;;;;-2.39;77.86;100285.87;1699735;83;21068;-70
2021/12/31 00:53:08;;;;;;;53.33;31.15;;;;;;;-2.40;77.95;100283.70;1709111;83;21028;-71
2021/12/31 00:55:35;;;;;;;52.70;32.07;;;;;;;-2.39;78.14;100285.87;1700293;83;21111;-71
2021/12/31 00:58:02;;;;;;;53.70;31.17;;;;;;;-2.38;78.23;100279.69;1703198;83;21358;-69
2021/12/31 01:00:29;;;;;;;50.92;29.95;;;;;;;-2.34;77.95;100283.75;1698893;83;21006;-71
2021/12/31 01:02:56;;;;;;;52.50;30.60;;;;;;;-2.33;78.01;100280.21;1686451;83;21020;-71
2021/12/31 01:05:22;;;;;;;42.70;26.68;;;;;;;-2.37;77.98;100277.45;1705978;83;21028;-70
2021/12/31 01:07:48;;;;;;;52.80;31.45;;;;;;;-2.37;78.19;100274.84;1658020;85;21508;-72
2021/12/31 01:10:17;;;;;;;50.98;30.60;;;;;;;-2.38;78.31;100264.02;1686997;83;21019;-69
2021/12/31 01:12:47;;;;;;;55.03;30.53;;;;;;;-2.35;78.42;100269.05;1693818;82;21037;-71
2021/12/31 01:15:22;;;;;;;56.77;32.40;;;;;;;-2.38;78.54;100257.02;1681716;83;21021;-71
2021/12/31 01:20:17;;;;;;;55.50;31.10;;;;;;;-2.37;78.50;100265.70;1687470;83;21076;-72
2021/12/31 01:22:44;;;;;;;52.13;29.77;;;;;;;-2.37;78.60;100271.75;1687152;83;21445;-70
2021/12/31 01:25:12;;;;;;;49.73;30.13;;;;;;;-2.40;78.68;100252.86;1703828;82;21537;-70
2021/12/31 01:27:39;;;;;;;51.73;30.67;;;;;;;-2.42;78.80;100254.27;1717549;82;21082;-71
2021/12/31 01:30:08;;;;;;;49.27;30.17;;;;;;;-2.43;78.90;100260.45;1673136;84;21047;-73
2021/12/31 01:32:36;;;;;;;52.20;31.33;;;;;;;-2.41;78.87;100256.39;1706725;82;21089;-70
2021/12/31 01:35:03;;;;;;;53.35;30.48;;;;;;;-2.38;78.68;100250.97;1646140;85;20985;-69
2021/12/31 01:37:29;;;;;;;49.07;29.60;;;;;;;-2.36;78.80;100247.30;1659752;85;21098;-70
2021/12/31 01:39:55;;;;;;;54.45;32.33;;;;;;;-2.34;78.82;100241.98;1665325;84;21043;-76
2021/12/31 01:42:28;;;;;;;54.65;32.17;;;;;;;-2.29;78.82;100242.98;1702794;83;21036;-71
2021/12/31 01:44:58;;;;;;;57.80;34.40;;;;;;;-2.27;78.76;100238.00;1690946;82;21055;-73
2021/12/31 01:47:34;;;;;;;55.03;32.17;;;;;;;-2.25;78.65;100236.11;1710220;83;20990;-71
2021/12/31 01:49:55;;;;;;;51.40;30.30;;;;;;;-2.21;78.58;100231.03;1708583;83;21002;-73
2021/12/31 01:52:23;;;;;;;49.67;28.90;;;;;;;-2.18;78.57;100229.52;1703951;83;21055;-71
2021/12/31 01:54:49;;;;;;;52.50;31.37;;;;;;;-2.18;78.73;100224.77;1698325;83;21006;-70
2021/12/31 01:57:18;;;;;;;54.43;32.33;;;;;;;-2.15;78.56;100223.23;1699363;83;21541;-72
2021/12/31 01:59:44;;;;;;;55.07;31.67;;;;;;;-2.11;78.53;100219.94;1705143;84;21042;-70
2021/12/31 02:02:11;;;;;;;50.07;30.47;;;;;;;-2.09;78.50;100216.73;1698030;82;21010;-70
2021/12/31 02:04:39;;;;;;;54.70;33.75;;;;;;;-2.14;78.41;100206.63;1707633;82;21021;-71
2021/12/31 02:07:07;;;;;;;53.03;31.33;;;;;;;-2.19;78.48;100203.03;1704280;82;21019;-72
2021/12/31 02:09:38;;;;;;;58.20;33.10;;;;;;;-2.20;78.68;100200.07;1701075;82;21046;-71
2021/12/31 02:12:03;;;;;;;54.73;32.37;;;;;;;-2.18;78.76;100202.09;1696335;82;21569;-71
2021/12/31 02:14:31;;;;;;;52.33;33.53;;;;;;;-2.18;78.74;100204.71;1693266;82;21069;-71
2021/12/31 02:16:57;;;;;;;51.13;29.47;;;;;;;-2.16;78.70;100209.83;1700971;82;21002;-71
2021/12/31 02:19:27;;;;;;;50.88;30.12;;;;;;;-2.14;78.87;100205.80;1696159;82;21593;-71
2021/12/31 02:21:56;;;;;;;54.23;32.73;;;;;;;-2.12;78.83;100201.30;1694611;82;20987;-71
2021/12/31 02:24:23;;;;;;;49.53;30.63;;;;;;;-2.09;78.67;100193.23;1699191;82;20987;-69
2021/12/31 02:26:51;;;;;;;55.47;33.17;;;;;;;-2.11;78.79;100202.95;1703982;83;21074;-70
2021/12/31 02:29:18;;;;;;;50.63;32.40;;;;;;;-2.12;78.87;100194.78;1705593;83;21031;-70
2021/12/31 02:31:45;;;;;;;50.60;30.90;;;;;;;-2.09;78.80;100197.14;1695792;83;21095;-70
2021/12/31 02:34:11;;;;;;;53.23;32.85;;;;;;;-2.07;78.83;100197.87;1703119;81;21516;-70
2021/12/31 02:36:38;;;;;;;47.90;29.27;;;;;;;-2.09;78.87;100197.14;1690471;83;21101;-71
2021/12/31 02:39:05;;;;;;;55.92;32.08;;;;;;;-2.07;78.88;100194.81;1706076;83;20994;-72
2021/12/31 02:41:31;;;;;;;52.85;31.90;;;;;;;-2.04;79.05;100197.66;1707185;83;21022;-70
2021/12/31 02:43:57;;;;;;;49.10;29.70;;;;;;;-2.02;78.93;100193.16;1693127;83;21689;-71
2021/12/31 02:46:23;;;;;;;51.48;30.37;;;;;;;-2.00;78.73;100197.34;1674020;80;21021;-70
2021/12/31 02:48:56;;;;;;;53.20;30.12;;;;;;;-2.03;78.81;100190.20;1709414;83;21017;-71
2021/12/31 02:51:20;;;;;;;60.50;33.27;;;;;;;-2.01;78.85;100193.53;1701048;83;21076;-73
2021/12/31 02:53:53;;;;;;;49.48;30.90;;;;;;;-2.02;78.91;100186.63;1700364;83;20997;-72
2021/12/31 02:56:21;;;;;;;47.20;29.07;;;;;;;-2.01;79.07;100184.39;1678281;83;21109;-71
2021/12/31 02:58:48;;;;;;;51.73;30.67;;;;;;;-1.99;79.02;100183.32;1699691;83;21514;-70
2021/12/31 03:01:14;;;;;;;53.47;32.17;;;;;;;-1.96;79.05;100179.64;1704790;82;21033;-71
2021/12/31 03:03:42;;;;;;;52.83;30.23;;;;;;;-1.93;79.10;100182.04;1690899;83;21004;-70
2021/12/31 03:06:10;;;;;;;52.88;29.72;;;;;;;-1.88;79.12;100177.33;1696467;83;21053;-70
2021/12/31 03:08:40;;;;;;;56.67;32.23;;;;;;;-1.84;79.00;100176.63;1694655;83;21075;-71
2021/12/31 03:11:08;;;;;;;56.17;31.03;;;;;;;-1.82;78.94;100179.48;1709353;83;21010;-72
2021/12/31 03:13:36;;;;;;;48.03;28.83;;;;;;;-1.84;79.05;100179.24;1708108;83;21038;-79
2021/12/31 03:16:06;;;;;;;50.27;29.90;;;;;;;-1.81;79.05;100179.00;1657295;85;21100;-71
2021/12/31 03:18:33;;;;;;;54.43;32.50;;;;;;;-1.77;79.23;100178.67;1701394;83;20990;-71
2021/12/31 03:21:09;;;;;;;52.07;33.07;;;;;;;-1.69;79.36;100175.49;1714077;83;21049;-71
2021/12/31 03:23:31;;;;;;;49.97;32.17;;;;;;;-1.64;79.36;100174.69;1705601;83;21017;-70
2021/12/31 03:25:57;;;;;;;52.00;32.40;;;;;;;-1.61;78.90;100176.23;1704588;83;21025;-70
2021/12/31 03:28:25;;;;;;;49.88;30.20;;;;;;;-1.63;79.03;100172.42;1705937;83;21025;-70
2021/12/31 03:30:52;;;;;;;51.67;31.37;;;;;;;-1.63;79.27;100178.12;1702874;83;21158;-72
2021/12/31 03:33:19;;;;;;;50.63;31.57;;;;;;;-1.66;79.48;100180.47;1701844;81;21030;-71
2021/12/31 03:35:45;;;;;;;48.42;30.17;;;;;;;-1.63;79.77;100176.82;1704644;83;21048;-70
2021/12/31 03:38:12;;;;;;;52.67;30.95;;;;;;;-1.63;79.74;100174.20;1702595;83;21525;-72
2021/12/31 03:40:39;;;;;;;48.50;29.13;;;;;;;-1.62;80.16;100169.32;1703094;83;21088;-71
2021/12/31 03:43:08;;;;;;;52.70;31.83;;;;;;;-1.63;80.41;100166.36;1702649;83;21053;-71
2021/12/31 03:45:36;;;;;;;47.33;28.87;;;;;;;-1.63;80.40;100163.27;1706477;81;21021;-71
2021/12/31 03:48:04;;;;;;;50.43;29.50;;;;;;;-1.63;80.54;100159.83;1708195;83;21053;-72
2021/12/31 03:50:30;;;;;;;49.70;31.57;;;;;;;-1.65;80.84;100163.03;1708480;83;21045;-71
2021/12/31 03:52:56;;;;;;;56.40;32.23;;;;;;;-1.64;80.96;100158.15;1701766;83;21148;-71
2021/12/31 03:55:23;;;;;;;53.03;32.93;;;;;;;-1.62;81.17;100158.87;1710371;83;21205;-70
2021/12/31 03:57:49;;;;;;;54.58;34.13;;;;;;;-1.60;81.28;100151.74;1714396;83;21542;-72
2021/12/31 04:00:17;;;;;;;53.30;33.40;;;;;;;-1.60;81.37;100158.28;1702029;83;21021;-72
2021/12/31 04:02:43;;;;;;;50.60;30.93;;;;;;;-1.58;81.36;100160.33;1711484;83;21477;-71
2021/12/31 04:06:27;;;;;;;51.37;32.13;;;;;;;-1.50;81.47;100147.51;1867993;75;22773;-70
2021/12/31 04:08:54;;;;;;;54.77;31.90;;;;;;;-1.51;81.48;100152.36;1814240;77;21017;-72
2021/12/31 04:11:20;;;;;;;57.00;33.33;;;;;;;-1.49;81.18;100149.16;1799119;77;21001;-70
2021/12/31 04:13:47;;;;;;;56.90;33.80;;;;;;;-1.52;81.27;100146.80;1763737;79;21008;-70
2021/12/31 04:16:13;;;;;;;52.23;31.23;;;;;;;-1.54;81.47;100141.30;1766585;79;21015;-70
2021/12/31 04:18:39;;;;;;;52.88;31.75;;;;;;;-1.53;81.76;100141.67;1766879;79;21081;-73
2021/12/31 04:21:07;;;;;;;54.63;33.98;;;;;;;-1.51;81.87;100141.08;1770979;79;20960;-72
2021/12/31 04:23:47;;;;;;;55.07;33.73;;;;;;;-1.49;82.02;100143.10;1731187;81;21032;-69
2021/12/31 04:26:06;;;;;;;48.90;30.57;;;;;;;-1.48;82.23;100141.69;1741279;81;21065;-70
2021/12/31 04:28:33;;;;;;;53.90;31.60;;;;;;;-1.48;82.40;100136.46;1725484;82;21069;-70
2021/12/31 04:30:59;;;;;;;50.95;31.37;;;;;;;-1.44;82.73;100140.98;1714473;82;21046;-72
2021/12/31 04:33:26;;;;;;;53.25;32.85;;;;;;;-1.41;82.74;100143.38;1724613;81;21603;-80
2021/12/31 04:35:52;;;;;;;57.83;31.65;;;;;;;-1.37;82.89;100140.89;1711649;82;21396;-72
2021/12/31 04:38:19;;;;;;;47.35;29.92;;;;;;;-1.31;83.01;100131.74;1710733;82;21092;-72
2021/12/31 04:40:45;;;;;;;49.40;31.40;;;;;;;-1.28;82.89;100129.73;1709653;82;20989;-71
2021/12/31 04:43:11;;;;;;;53.30;33.67;;;;;;;-1.24;82.77;100124.61;1706406;82;21099;-72
2021/12/31 04:45:37;;;;;;;55.85;33.38;;;;;;;-1.25;82.66;100121.63;1697484;84;21014;-72
2021/12/31 04:48:04;;;;;;;53.08;30.68;;;;;;;-1.24;82.66;100121.17;1697512;83;20995;-69
2021/12/31 04:50:30;;;;;;;48.00;31.62;;;;;;;-1.23;82.90;100114.50;1708236;84;21090;-71
2021/12/31 04:52:57;;;;;;;48.00;30.68;;;;;;;-1.21;82.75;100113.90;1706472;83;21038;-70
2021/12/31 04:55:23;;;;;;;50.00;31.57;;;;;;;-1.22;82.89;100115.35;1714209;82;21185;-73
2021/12/31 04:57:49;;;;;;;53.70;33.00;;;;;;;-1.24;83.09;100110.72;1706916;83;21011;-72
2021/12/31 05:00:16;;;;;;;50.70;30.37;;;;;;;-1.24;82.95;100106.79;1690150;82;21553;-73
2021/12/31 05:02:43;;;;;;;51.17;31.73;;;;;;;-1.24;83.09;100104.17;1687791;83;21089;-74
2021/12/31 05:05:10;;;;;;;51.60;32.10;;;;;;;-1.26;83.33;100100.36;1694785;82;21120;-80
2021/12/31 05:07:38;;;;;;;50.30;31.27;;;;;;;-1.23;83.21;100104.03;1721362;81;21040;-73
2021/12/31 05:10:05;;;;;;;;;;;;;;;-1.27;83.32;100099.99;1710237;82;21019;-70
2021/12/31 05:12:37;;;;;;;53.17;32.80;;;;;;;-1.27;83.33;100110.45;1723907;81;20143;-72
2021/12/31 05:15:02;;;;;;;54.87;34.40;;;;;;;-1.31;83.74;100120.80;1691847;84;21052;-71
2021/12/31 05:17:30;;;;;;;53.87;32.47;;;;;;;-1.28;83.77;100119.72;1725374;81;21550;-71
2021/12/31 05:19:56;;;;;;;58.23;33.35;;;;;;;-1.23;84.02;100120.20;1715211;82;21023;-73
2021/12/31 05:22:24;;;;;;;54.47;32.23;;;;;;;-1.16;83.81;100107.50;1713638;82;21029;-72
2021/12/31 05:24:50;;;;;;;51.23;31.57;;;;;;;-1.18;83.61;100102.39;1727491;82;21582;-72
2021/12/31 05:27:17;;;;;;;;;;;;;;;-1.16;83.55;100100.97;1729469;82;21097;-71
2021/12/31 05:29:43;;;;;;;62.30;34.57;;;;;;;-1.16;83.62;100097.05;1721653;82;20141;-73
2021/12/31 05:32:10;;;;;;;60.48;36.40;;;;;;;-1.19;83.83;100090.25;1729655;81;21049;-75
2021/12/31 05:34:36;;;;;;;63.27;39.77;;;;;;;-1.19;83.89;100087.63;1752067;80;21541;-72
2021/12/31 05:37:03;;;;;;;63.48;39.92;;;;;;;-1.18;83.75;100099.29;1759687;80;20994;-70
2021/12/31 05:39:30;;;;;;;71.90;40.67;;;;;;;-1.19;83.81;100106.80;1759281;80;21121;-73
2021/12/31 05:41:56;;;;;;;59.08;39.33;;;;;;;-1.18;83.85;100095.84;1767852;80;22427;-72
2021/12/31 05:44:22;;;;;;;63.25;37.05;;;;;;;-1.13;84.00;100102.02;1748064;80;25612;-71
2021/12/31 05:46:50;;;;;;;;;;;;;;;-1.09;84.05;100108.67;1684363;83;21025;-71
2021/12/31 05:49:17;;;;;;;59.00;34.13;;;;;;;-1.09;83.93;100101.68;1686452;85;20141;-67
2021/12/31 05:51:43;;;;;;;55.25;34.60;;;;;;;-1.15;84.11;100090.36;1689369;85;21226;-67
2021/12/31 05:54:10;;;;;;;58.77;32.30;;;;;;;-1.16;84.04;100100.48;1658755;85;21097;-67
2021/12/31 05:56:37;;;;;;;54.10;31.17;;;;;;;-1.13;84.31;100098.09;1703682;82;21073;-65
2021/12/31 05:59:03;;;;;;;54.80;32.88;;;;;;;-1.11;84.31;100104.04;1702218;82;21582;-67
2021/12/31 06:01:31;;;;;;;50.48;30.05;;;;;;;-1.12;84.42;100104.52;1687816;83;21093;-66
2021/12/31 06:03:57;;;;;;;56.10;33.40;;;;;;;-1.09;84.51;100102.13;1695482;83;21135;-67
2021/12/31 06:06:23;;;;;;;;;;;;;;;-1.11;84.45;100104.04;1703059;83;21153;-67
2021/12/31 06:08:49;;;;;;;53.30;31.50;;;;;;;-1.13;84.63;100100.25;1690718;83;20177;-67
2021/12/31 06:11:16;;;;;;;49.08;29.00;;;;;;;-1.13;84.67;100101.56;1695600;83;21002;-67
2021/12/31 06:13:43;;;;;;;52.27;32.30;;;;;;;-1.12;85.00;100100.59;1711115;81;21037;-66
2021/12/31 06:16:12;;;;;;;50.63;28.87;;;;;;;-1.05;84.81;100103.58;1727625;81;21017;-67
2021/12/31 06:18:39;;;;;;;53.87;32.43;;;;;;;-1.00;84.88;100110.12;1725168;81;21001;-71
2021/12/31 06:21:07;;;;;;;51.50;32.03;;;;;;;-0.93;84.68;100113.08;1713941;82;21110;-72
2021/12/31 06:23:35;;;;;;;49.77;28.67;;;;;;;-0.92;84.73;100108.22;1701246;82;21054;-72
2021/12/31 06:26:03;;;;;;;50.07;32.50;;;;;;;-0.91;84.67;100108.55;1685780;83;21506;-72
2021/12/31 06:28:30;;;;;;;52.40;28.98;;;;;;;-0.90;84.68;100106.79;1725772;82;21554;-67
2021/12/31 06:30:56;;;;;;;63.55;33.38;;;;;;;-0.91;84.72;100109.86;1724842;82;21173;-68
2021/12/31 06:33:24;;;;;;;59.27;34.25;;;;;;;-0.91;84.79;100107.73;1719521;82;21028;-67
2021/12/31 06:35:50;;;;;;;55.87;35.43;;;;;;;-0.90;84.88;100113.34;1661737;85;21142;-67
2021/12/31 06:38:17;;;;;;;65.40;36.98;;;;;;;-0.88;85.05;100118.79;1662063;85;21075;-70
2021/12/31 06:40:44;;;;;;;49.73;29.33;;;;;;;-0.81;85.20;100116.51;1691194;83;20988;-68
2021/12/31 06:43:10;;;;;;;55.63;33.90;;;;;;;-0.74;85.26;100120.31;1691791;83;21031;-71
2021/12/31 06:45:36;;;;;;;56.55;34.78;;;;;;;-0.72;85.00;100121.51;1683585;83;20991;-68
2021/12/31 06:48:02;;;;;;;53.10;33.00;;;;;;;-0.70;85.04;100119.59;1685076;83;21263;-67
2021/12/31 06:50:29;;;;;;;51.33;32.85;;;;;;;-0.69;85.17;100124.72;1686694;83;21536;-67
2021/12/31 06:52:55;;;;;;;54.20;33.85;;;;;;;-0.68;85.13;100122.47;1687186;83;21040;-68
2021/12/31 06:55:21;;;;;;;57.17;35.08;;;;;;;-0.68;85.15;100121.61;1688242;83;21075;-68
2021/12/31 06:57:49;;;;;;;56.95;37.03;;;;;;;-0.68;85.27;100121.16;1695320;83;21634;-69
2021/12/31 07:00:17;;;;;;;67.00;36.47;;;;;;;-0.69;85.49;100111.63;1688838;84;21003;-67
2021/12/31 07:02:44;;;;;;;61.80;36.07;;;;;;;-0.70;85.83;100114.36;1690265;83;21094;-68
2021/12/31 07:05:10;;;;;;;56.98;35.17;;;;;;;-0.73;85.81;100118.55;1696718;83;21147;-68
2021/12/31 07:07:37;;;;;;;61.60;36.77;;;;;;;-0.78;86.45;100120.20;1697855;83;21039;-68
2021/12/31 07:10:07;;;;;;;60.50;35.80;;;;;;;-0.79;86.54;100119.38;1691521;83;21588;-69
2021/12/31 07:12:33;;;;;;;57.17;33.43;;;;;;;-0.78;86.76;100125.44;1697021;83;21066;-66
2021/12/31 07:14:59;;;;;;;57.15;33.88;;;;;;;-0.81;87.11;100125.22;1690935;84;21156;-67
2021/12/31 07:17:28;;;;;;;55.95;34.15;;;;;;;-0.79;87.24;100132.95;1688265;84;21043;-69
2021/12/31 07:19:54;;;;;;;55.03;31.00;;;;;;;-0.74;87.20;100125.55;1672021;83;21079;-69
2021/12/31 07:22:21;;;;;;;54.38;34.58;;;;;;;-0.73;87.64;100127.23;1685632;83;21552;-69
2021/12/31 07:24:47;;;;;;;63.00;34.93;;;;;;;-0.76;87.80;100116.98;1679312;83;21098;-70
2021/12/31 07:27:13;;;;;;;61.83;37.08;;;;;;;-0.75;87.82;100111.27;1708789;83;21098;-71
2021/12/31 07:29:40;;;;;;;57.65;34.33;;;;;;;-0.70;88.01;100104.72;1692304;83;21045;-70
2021/12/31 07:32:06;;;;;;;57.20;34.03;;;;;;;-0.65;87.95;100110.91;1696781;83;21083;-70
2021/12/31 07:34:32;;;;;;;56.65;33.92;;;;;;;-0.68;88.07;100116.38;1741202;80;21015;-70
2021/12/31 07:36:58;;;;;;;58.28;34.40;;;;;;;-0.69;88.27;100110.33;1770514;80;21547;-70
2021/12/31 07:39:30;;;;;;;62.88;35.43;;;;;;;-0.56;88.32;100111.98;1771305;80;21061;-71
2021/12/31 07:41:53;;;;;;;63.23;35.67;;;;;;;-0.47;88.14;100105.98;1775252;80;21018;-71
2021/12/31 07:44:21;;;;;;;62.43;36.83;;;;;;;-0.43;88.23;100110.05;1761502;79;20963;-71
2021/12/31 07:46:47;;;;;;;61.05;35.38;;;;;;;-0.46;88.07;100113.72;1759475;79;21092;-71
2021/12/31 07:49:13;;;;;;;72.85;34.75;;;;;;;-0.47;88.18;100108.60;1752176;79;20989;-71
2021/12/31 07:51:40;;;;;;;;;;;;;;;-0.43;88.04;100108.73;1765945;79;21509;-71
2021/12/31 07:54:06;;;;;;;59.57;33.93;;;;;;;-0.40;87.93;100114.56;1754916;79;20461;-71
2021/12/31 07:56:33;;;;;;;70.60;39.60;;;;;;;-0.41;88.08;100112.06;1756714;79;21482;-72
2021/12/31 07:59:00;;;;;;;57.75;34.35;;;;;;;-0.41;88.37;100106.34;1751550;79;21651;-71
2021/12/31 08:01:26;;;;;;;64.42;34.33;;;;;;;-0.41;88.73;100098.97;1718959;80;21046;-71
2021/12/31 08:03:52;;;;;;;63.73;33.85;;;;;;;-0.36;88.33;100094.66;1715896;82;21068;-68
2021/12/31 08:06:19;;;;;;;65.03;39.18;;;;;;;-0.33;88.35;100099.66;1715210;82;21122;-68
2021/12/31 08:08:45;;;;;;;73.37;39.53;;;;;;;-0.34;88.52;100096.67;1692379;83;21093;-67
2021/12/31 08:11:11;;;;;;;74.40;39.80;;;;;;;-0.38;88.92;100094.77;1757998;80;21157;-67
2021/12/31 08:13:37;;;;;;;69.77;39.48;;;;;;;-0.36;89.07;100102.02;1750310;80;21018;-69
2021/12/31 08:16:04;;;;;;;65.47;39.07;;;;;;;-0.29;89.01;100103.20;1724667;83;21095;-69
2021/12/31 08:18:30;;;;;;;64.47;39.30;;;;;;;-0.22;88.96;100103.06;1725142;81;21014;-67
2021/12/31 08:20:58;;;;;;;63.33;39.80;;;;;;;-0.18;89.04;100098.89;1705642;83;20986;-67
2021/12/31 08:23:25;;;;;;;67.17;38.25;;;;;;;-0.15;89.11;100099.48;1728583;81;20994;-68
2021/12/31 08:25:51;;;;;;;77.08;43.50;;;;;;;-0.15;89.38;100094.69;1724244;82;21031;-67
2021/12/31 08:28:18;;;;;;;80.20;43.52;;;;;;;-0.11;89.53;100092.20;1715286;82;20983;-71
2021/12/31 08:30:44;;;;;;;75.78;37.60;;;;;;;-0.01;89.41;100093.09;1717411;82;21065;-69
2021/12/31 08:33:11;;;;;;;70.97;38.15;;;;;;;0.10;89.15;100090.42;1728480;82;21090;-68
2021/12/31 08:35:39;;;;;;;71.23;39.87;;;;;;;0.18;88.99;100089.78;1725753;82;21033;-68
2021/12/31 08:38:05;;;;;;;77.35;41.85;;;;;;;0.22;88.90;100088.56;1726053;82;21033;-69
2021/12/31 08:40:31;;;;;;;76.82;42.17;;;;;;;0.21;88.95;100088.23;1703502;83;21053;-68
2021/12/31 08:42:57;;;;;;;80.03;40.73;;;;;;;0.16;88.88;100085.15;1722105;82;21055;-66
2021/12/31 08:45:25;;;;;;;72.53;41.15;;;;;;;0.21;88.94;100087.38;1722334;82;21077;-69
2021/12/31 08:47:51;;;;;;;74.03;39.60;;;;;;;0.33;88.77;100088.50;1737942;81;21088;-73
2021/12/31 08:50:18;;;;;;;70.90;42.10;;;;;;;0.39;88.51;100089.78;1724214;81;21019;-71
2021/12/31 08:52:45;;;;;;;78.15;41.40;;;;;;;0.45;88.63;100089.74;1734971;81;21072;-72
2021/12/31 08:55:13;;;;;;;73.70;42.27;;;;;;;0.43;88.73;100091.66;1723029;82;21089;-68
2021/12/31 08:57:42;;;;;;;73.47;39.13;;;;;;;0.38;88.84;100087.64;1732374;82;21600;-70
2021/12/31 09:00:10;;;;;;;75.97;42.10;;;;;;;0.36;88.88;100084.33;1701544;82;21548;-70
2021/12/31 09:02:39;;;;;;;76.97;42.73;;;;;;;0.44;88.58;100086.78;1672986;83;21558;-71
2021/12/31 09:05:07;;;;;;;77.00;42.90;;;;;;;0.47;88.48;100078.19;1676952;84;22391;-71
2021/12/31 09:07:34;;;;;;;75.23;41.33;;;;;;;0.46;88.44;100081.75;1689443;84;21628;-70
2021/12/31 09:10:00;;;;;;;84.17;45.37;;;;;;;0.45;88.86;100085.32;1680846;84;21105;-71
2021/12/31 09:12:26;;;;;;;74.27;44.45;;;;;;;0.45;89.08;100089.74;1698269;83;21034;-71
2021/12/31 09:14:53;;;;;;;;;;;;;;;0.50;89.08;100075.28;1694692;83;21046;-71
2021/12/31 09:17:21;;;;;;;85.63;47.47;;;;;;;0.59;88.95;100073.69;1679765;83;20150;-72
2021/12/31 09:19:47;;;;;;;83.63;46.17;;;;;;;0.60;88.81;100069.26;1696663;83;21539;-70
2021/12/31 09:22:13;;;;;;;85.15;45.33;;;;;;;0.58;88.80;100064.99;1703791;81;21033;-70
2021/12/31 09:24:39;;;;;;;88.07;45.17;;;;;;;0.54;89.12;100068.81;1723597;81;21041;-71
2021/12/31 09:27:06;;;;;;;94.90;47.40;;;;;;;0.52;89.45;100066.80;1725945;81;21041;-70
2021/12/31 09:29:32;;;;;;;84.60;42.93;;;;;;;0.53;89.62;100075.03;1717844;81;21608;-70
2021/12/31 09:31:58;;;;;;;79.97;44.15;;;;;;;0.60;89.42;100064.02;1725427;81;21084;-71
2021/12/31 09:34:24;;;;;;;92.35;48.42;;;;;;;0.64;89.26;100062.78;1706241;81;21033;-69
2021/12/31 09:36:51;;;;;;;87.95;47.27;;;;;;;0.69;89.29;100068.48;1711044;83;21490;-71
2021/12/31 09:39:18;;;;;;;86.90;45.23;;;;;;;0.67;89.54;100065.98;1709385;83;21079;-71
2021/12/31 09:41:44;;;;;;;91.05;47.00;;;;;;;0.64;89.76;100059.70;1708835;83;21581;-72
2021/12/31 09:44:14;;;;;;;89.92;48.05;;;;;;;0.66;89.93;100056.47;1711749;82;21103;-71
2021/12/31 09:46:39;;;;;;;94.77;48.87;;;;;;;0.72;89.66;100057.24;1706918;83;21062;-74
2021/12/31 09:49:05;;;;;;;89.32;46.75;;;;;;;0.80;89.58;100057.89;1696353;83;22113;-73
2021/12/31 09:51:33;;;;;;;86.00;47.62;;;;;;;0.82;89.63;100055.14;1711297;83;21040;-76
2021/12/31 09:54:00;;;;;;;96.80;49.47;;;;;;;0.76;90.07;100055.19;1706120;83;21179;-76
2021/12/31 09:56:27;;;;;;;95.40;51.37;;;;;;;0.72;90.27;100052.48;1716423;82;21032;-75
2021/12/31 09:58:54;;;;;;;89.40;48.30;;;;;;;0.78;90.23;100048.02;1719521;83;21328;-75
2021/12/31 10:01:20;;;;;;;92.57;50.25;;;;;;;0.87;90.21;100043.78;1722267;83;21575;-75
2021/12/31 10:03:56;;;;;;;90.10;47.58;;;;;;;0.94;90.07;100048.36;1723509;83;21004;-76
2021/12/31 10:06:24;;;;;;;88.67;50.60;;;;;;;0.70;90.21;100004.08;1724681;83;21211;-75
2021/12/31 10:08:51;;;;;;;94.40;49.57;;;;;;;0.92;90.45;100046.35;1721672;81;21535;-75
2021/12/31 10:11:22;;;;;;;94.37;47.17;;;;;;;0.93;90.60;100044.06;1726178;81;21500;-78
2021/12/31 10:14:00;;;;;;;93.30;49.47;;;;;;;1.08;90.39;100035.83;1723727;83;21210;-78
2021/12/31 10:16:39;;;;;;;80.73;42.77;;;;;;;1.16;90.21;100035.48;1721597;82;21577;-75
2021/12/31 10:19:11;;;;;;;;;;;;;;;1.24;89.99;100022.98;1721967;81;21025;-75
2021/12/31 10:21:51;;;;;;;89.93;47.10;;;;;;;1.27;90.03;100025.34;1726613;82;20174;-75
2021/12/31 10:24:34;;;;;;;91.13;47.53;;;;;;;1.19;90.57;100023.05;1720677;81;21705;-76
2021/12/31 10:27:17;;;;;;;88.23;45.33;;;;;;;1.18;90.73;100026.16;1714282;83;21598;-75
2021/12/31 10:30:00;;;;;;;84.67;43.33;;;;;;;1.27;90.60;100025.34;1716564;83;21058;-74
2021/12/31 10:32:29;;;;;;;93.30;47.63;;;;;;;1.43;90.33;100021.36;1720262;82;21130;-75
2021/12/31 10:35:19;;;;;;;88.00;45.97;;;;;;;1.49;90.09;100011.63;1725517;81;21502;-75
2021/12/31 10:38:00;;;;;;;92.97;48.67;;;;;;;1.49;90.17;100018.20;1725989;81;21592;-76
2021/12/31 10:40:36;;;;;;;90.37;46.13;;;;;;;1.46;90.38;100014.52;1722194;81;21032;-73
2021/12/31 10:43:21;;;;;;;94.17;47.97;;;;;;;1.43;90.72;100010.39;1723219;81;21003;-74
2021/12/31 10:46:08;;;;;;;88.43;44.60;;;;;;;1.54;90.47;100014.20;1726325;81;21123;-75
2021/12/31 10:48:48;;;;;;;90.63;48.80;;;;;;;1.66;90.21;100018.00;1722480;81;22513;-73
2021/12/31 10:51:18;;;;;;;97.97;49.00;;;;;;;1.72;90.01;100009.06;1731303;81;21075;-73
2021/12/31 10:53:53;;;;;;;90.23;48.50;;;;;;;1.70;89.76;100007.06;1720354;81;21570;-74
2021/12/31 10:56:20;;;;;;;100.00;52.17;;;;;;;1.64;89.99;100006.31;1737148;81;20994;-74
2021/12/31 10:58:58;;;;;;;95.70;48.73;;;;;;;1.62;90.42;100003.45;1742989;81;21297;-75
2021/12/31 11:01:25;;;;;;;92.10;46.60;;;;;;;1.64;90.44;100003.68;1733254;81;21474;-73
2021/12/31 11:03:53;;;;;;;79.77;39.95;;;;;;;1.70;90.18;100008.86;1715933;81;21534;-75
2021/12/31 11:06:22;;;;;;;84.07;45.47;;;;;;;1.70;90.16;100007.06;1711702;83;21110;-76
2021/12/31 11:08:50;;;;;;;91.53;47.37;;;;;;;1.74;90.15;100011.06;1724742;83;21050;-75
2021/12/31 11:11:19;;;;;;;94.53;50.40;;;;;;;1.71;90.34;100004.79;1724673;83;21557;-74
2021/12/31 11:13:46;;;;;;;91.63;49.33;;;;;;;1.69;90.57;100008.50;1728776;81;21026;-74
2021/12/31 11:16:14;;;;;;;89.22;44.83;;;;;;;1.70;90.93;100004.43;1714822;81;20982;-73
2021/12/31 11:18:41;;;;;;;97.50;49.27;;;;;;;1.78;90.96;99998.97;1713402;81;21089;-74
2021/12/31 11:21:09;;;;;;;85.30;47.77;;;;;;;1.89;90.75;99989.62;1733346;81;20986;-73